createdAt,value
2022-09-12T00:02:31.387Z,2.00
2022-09-12T00:05:41.575Z,2.25
2022-09-12T00:08:46.691Z,2.10
2022-09-12T00:11:50.804Z,2.83
2022-09-12T00:14:55.156Z,2.28
2022-09-12T00:17:59.623Z,2.25
2022-09-12T00:21:04.987Z,2.35
2022-09-12T00:24:10.676Z,2.00
2022-09-12T00:27:15.058Z,1.80
2022-09-12T00:30:19.152Z,2.75
2022-09-12T00:33:23.603Z,2.30
2022-09-12T00:36:29.666Z,2.72
2022-09-12T00:39:34.301Z,2.47
2022-09-12T00:42:38.810Z,2.67
2022-09-12T00:45:43.302Z,2.50
2022-09-12T00:48:57.419Z,2.67
2022-09-12T00:52:23.175Z,3.20
2022-09-12T00:55:40.667Z,2.38
2022-09-12T00:58:51.511Z,3.22
2022-09-12T01:01:56.674Z,2.75
2022-09-12T01:05:01.038Z,2.83
2022-09-12T01:08:06.178Z,1.73
2022-09-12T01:11:11.722Z,2.42
2022-09-12T01:14:17.502Z,2.22
2022-09-12T01:17:22.165Z,2.83
2022-09-12T01:24:23.834Z,3.03
2022-09-12T01:27:40.245Z,2.75
2022-09-12T01:31:23.713Z,2.60
2022-09-12T01:34:37.143Z,4.90
2022-09-12T01:37:58.558Z,3.85
2022-09-12T01:41:14.132Z,3.10
2022-09-12T01:44:46.201Z,2.42
2022-09-12T01:48:03.069Z,2.30
2022-09-12T01:51:20.154Z,2.47
2022-09-12T01:54:32.174Z,2.75
2022-09-12T01:58:14.144Z,3.13
2022-09-12T02:01:29.988Z,2.60
2022-09-12T02:04:46.867Z,2.78
2022-09-12T02:08:14.326Z,3.03
2022-09-12T02:11:20.621Z,3.40
2022-09-12T02:14:36.746Z,2.90
2022-09-12T02:17:49.152Z,2.67
2022-09-12T02:20:55.933Z,2.33
2022-09-12T02:24:02.862Z,2.58
2022-09-12T02:27:37.848Z,2.13
2022-09-12T02:30:56.408Z,2.58
2022-09-12T02:34:33.455Z,2.58
2022-09-12T02:38:08.492Z,3.00
2022-09-12T02:41:17.387Z,2.75
2022-09-12T02:44:22.672Z,4.45
2022-09-12T02:47:34.234Z,5.68
2022-09-12T02:50:38.620Z,5.10
2022-09-12T02:53:43.211Z,4.75
2022-09-12T02:56:47.639Z,4.72
2022-09-12T02:59:57.158Z,3.30
2022-09-12T03:03:09.626Z,3.72
2022-09-12T03:06:45.447Z,2.83
2022-09-12T03:09:53.841Z,1.60
2022-09-12T03:13:30.014Z,2.40
2022-09-12T03:17:02.561Z,2.28
2022-09-12T03:20:21.651Z,1.80
2022-09-12T03:23:38.241Z,1.90
2022-09-12T03:26:48.882Z,2.00
2022-09-12T03:29:54.110Z,1.85
2022-09-12T03:32:58.418Z,1.27
2022-09-12T03:36:03.026Z,1.30
2022-09-12T03:39:07.270Z,1.73
2022-09-12T03:42:11.498Z,1.42
2022-09-12T03:45:16.613Z,1.95
2022-09-12T03:48:21.390Z,1.80
2022-09-12T03:51:25.413Z,1.80
2022-09-12T03:54:29.709Z,1.92
2022-09-12T03:57:34.095Z,1.40
2022-09-12T04:00:39.989Z,1.33
2022-09-12T04:03:46.850Z,1.52
2022-09-12T04:06:51.366Z,2.22
2022-09-12T04:09:56.253Z,1.40
2022-09-12T04:16:05.646Z,1.40
2022-09-12T04:19:11.673Z,1.70
2022-09-12T04:22:16.369Z,2.00
2022-09-12T04:25:20.945Z,2.30
2022-09-12T04:28:29.040Z,2.53
2022-09-12T04:31:33.459Z,2.40
2022-09-12T04:34:37.756Z,2.47
2022-09-12T04:37:42.071Z,2.25
2022-09-12T04:40:46.480Z,1.95
2022-09-12T04:44:02.331Z,3.25
2022-09-12T04:47:07.775Z,2.72
2022-09-12T04:50:12.058Z,2.60
2022-09-12T04:53:16.421Z,2.10
2022-09-12T04:56:21.753Z,1.90
2022-09-12T04:59:26.829Z,1.38
2022-09-12T05:05:37.699Z,1.45
2022-09-12T05:08:42.463Z,1.20
2022-09-12T05:15:11.750Z,1.80
2022-09-12T05:18:16.358Z,2.45
2022-09-12T05:21:23.197Z,2.03
2022-09-12T05:24:27.730Z,2.53
2022-09-12T05:27:31.931Z,2.53
2022-09-12T05:30:36.239Z,2.80
2022-09-12T05:33:42.387Z,3.30
2022-09-12T05:36:46.702Z,3.78
2022-09-12T05:39:52.375Z,3.13
2022-09-12T05:42:57.610Z,4.30
2022-09-12T05:46:03.566Z,4.32
2022-09-12T05:49:11.372Z,4.28
2022-09-12T05:52:16.233Z,3.90
2022-09-12T05:55:21.112Z,3.90
2022-09-12T05:58:25.374Z,4.00
2022-09-12T06:01:31.527Z,5.93
2022-09-12T06:04:35.827Z,4.68
2022-09-12T06:07:40.403Z,6.18
2022-09-12T06:10:44.897Z,5.90
2022-09-12T06:13:49.475Z,3.43
2022-09-12T06:16:53.757Z,9.23
2022-09-12T06:19:58.651Z,6.80
2022-09-12T06:23:03.046Z,4.25
2022-09-12T06:26:10.350Z,2.58
2022-09-12T06:29:15.423Z,3.85
2022-09-12T06:35:23.714Z,3.17
2022-09-12T06:38:28.124Z,3.97
2022-09-12T06:41:32.684Z,2.10
2022-09-12T06:44:37.344Z,2.85
2022-09-12T06:47:41.889Z,1.83
2022-09-12T06:51:10.240Z,2.55
2022-09-12T06:54:15.662Z,1.90
2022-09-12T06:57:20.091Z,2.63
2022-09-12T07:00:24.358Z,1.73
2022-09-12T07:03:28.672Z,1.80
2022-09-12T07:06:44.486Z,2.22
2022-09-12T07:09:49.369Z,2.05
2022-09-12T07:12:53.349Z,1.77
2022-09-12T07:16:02.391Z,1.60
2022-09-12T07:19:08.050Z,1.23
2022-09-12T07:22:12.477Z,3.08
2022-09-12T07:25:16.952Z,1.77
2022-09-12T07:28:21.502Z,1.88
2022-09-12T07:31:27.765Z,0.95
2022-09-12T07:34:32.515Z,1.60
2022-09-12T07:37:36.830Z,1.10
2022-09-12T07:40:41.256Z,0.68
2022-09-12T07:46:50.770Z,1.33
2022-09-12T07:49:55.013Z,1.00
2022-09-12T07:52:59.692Z,1.10
2022-09-12T07:59:09.777Z,1.08
2022-09-12T08:05:22.289Z,1.20
2022-09-12T08:08:27.049Z,1.25
2022-09-12T08:11:31.433Z,1.20
2022-09-12T08:14:35.606Z,0.75
